createdAt,value
2023-02-19T00:01:17.336Z,42.76
2023-02-19T00:03:47.959Z,42.79
2023-02-19T00:06:14.763Z,43.13
2023-02-19T00:08:41.683Z,42.88
2023-02-19T00:11:10.337Z,42.78
2023-02-19T00:13:44.939Z,42.60
2023-02-19T00:16:15.647Z,42.70
2023-02-19T00:18:42.932Z,42.40
2023-02-19T00:21:10.239Z,42.56
2023-02-19T00:23:37.436Z,42.17
2023-02-19T00:26:17.289Z,42.07
2023-02-19T00:28:45.502Z,42.20
2023-02-19T00:31:15.590Z,41.91
2023-02-19T00:33:42.442Z,41.84
2023-02-19T00:36:09.423Z,41.77
2023-02-19T00:38:36.876Z,41.99
2023-02-19T00:41:19.212Z,41.71
2023-02-19T00:43:55.764Z,41.77
2023-02-19T00:46:24.669Z,41.84
2023-02-19T00:48:52.683Z,41.74
2023-02-19T00:51:20.167Z,41.44
2023-02-19T00:53:47.034Z,41.47
2023-02-19T00:56:13.828Z,41.42
2023-02-19T00:58:40.655Z,41.60
2023-02-19T01:01:07.901Z,41.92
2023-02-19T01:03:35.656Z,41.95
2023-02-19T01:06:02.700Z,42.04
2023-02-19T01:08:31.183Z,42.25
2023-02-19T01:10:58.560Z,42.60
2023-02-19T01:13:25.371Z,42.44
2023-02-19T01:15:52.303Z,42.68
2023-02-19T01:18:19.193Z,42.77
2023-02-19T01:20:45.938Z,42.84
2023-02-19T01:23:13.558Z,43.10
2023-02-19T01:25:41.275Z,43.36
2023-02-19T01:28:08.204Z,43.72
2023-02-19T01:30:37.358Z,43.71
2023-02-19T01:33:07.005Z,43.70
2023-02-19T01:35:33.855Z,43.72
2023-02-19T01:38:00.680Z,43.83
2023-02-19T01:40:27.474Z,43.67
2023-02-19T01:42:54.300Z,43.60
2023-02-19T01:45:47.455Z,43.38
2023-02-19T01:48:20.018Z,43.36
2023-02-19T01:51:11.914Z,43.29
2023-02-19T01:53:40.397Z,43.16
2023-02-19T01:56:07.130Z,43.27
2023-02-19T01:58:34.717Z,43.18
2023-02-19T02:01:02.403Z,43.25
2023-02-19T02:03:29.233Z,43.28
2023-02-19T02:06:14.223Z,43.28
2023-02-19T02:08:59.413Z,42.85
2023-02-19T02:11:26.225Z,43.01
2023-02-19T02:13:52.991Z,43.05
2023-02-19T02:16:38.880Z,43.08
2023-02-19T02:19:14.713Z,43.09
2023-02-19T02:21:56.156Z,43.17
2023-02-19T02:24:34.702Z,43.00
2023-02-19T02:27:26.159Z,43.23
2023-02-19T02:30:14.290Z,43.31
2023-02-19T02:32:53.800Z,43.28
2023-02-19T02:35:30.207Z,43.63
2023-02-19T02:37:58.530Z,43.73
2023-02-19T02:40:25.370Z,43.96
2023-02-19T02:42:52.183Z,44.00
2023-02-19T02:45:37.653Z,44.08
2023-02-19T02:48:33.722Z,44.11
2023-02-19T02:51:02.185Z,44.28
2023-02-19T02:54:07.266Z,44.21
2023-02-19T02:56:34.790Z,44.40
2023-02-19T02:59:02.347Z,43.94
2023-02-19T03:01:52.131Z,44.30
2023-02-19T03:05:03.552Z,43.99
2023-02-19T03:07:34.170Z,43.95
2023-02-19T03:10:00.916Z,43.79
2023-02-19T03:12:46.164Z,43.79
2023-02-19T03:15:31.546Z,43.83
2023-02-19T03:18:19.780Z,43.63
2023-02-19T03:20:49.171Z,43.72
2023-02-19T03:23:15.979Z,43.67
2023-02-19T03:26:01.231Z,43.59
2023-02-19T03:28:48.542Z,43.54
2023-02-19T03:31:17.450Z,43.45
2023-02-19T03:33:45.558Z,43.52
2023-02-19T03:36:12.978Z,43.61
2023-02-19T03:39:08.812Z,43.50
2023-02-19T03:41:49.474Z,43.58
2023-02-19T03:45:03.933Z,44.07
2023-02-19T03:47:33.963Z,44.18
2023-02-19T03:50:20.337Z,44.41
2023-02-19T03:53:11.387Z,44.45
2023-02-19T03:55:53.298Z,44.39
2023-02-19T03:58:25.004Z,44.24
2023-02-19T04:01:05.601Z,44.29
2023-02-19T04:03:50.104Z,44.32
2023-02-19T04:06:26.569Z,44.29
2023-02-19T04:08:54.952Z,44.37
2023-02-19T04:11:21.771Z,44.48
2023-02-19T04:14:00.260Z,44.57
2023-02-19T04:16:28.765Z,44.61
2023-02-19T04:18:58.497Z,44.67
2023-02-19T04:21:25.420Z,44.70
2023-02-19T04:23:52.277Z,44.76
2023-02-19T04:26:19.129Z,44.94
2023-02-19T04:28:46.680Z,45.24
2023-02-19T04:31:13.770Z,45.40
2023-02-19T04:33:40.745Z,45.51
2023-02-19T04:36:08.139Z,45.61
2023-02-19T04:38:37.853Z,45.78
2023-02-19T04:41:04.806Z,45.87
2023-02-19T04:43:31.738Z,45.92
2023-02-19T04:46:01.953Z,45.83
2023-02-19T04:48:29.024Z,45.78
2023-02-19T04:50:56.316Z,45.77
2023-02-19T04:53:23.126Z,45.71
2023-02-19T04:55:53.386Z,45.65
2023-02-19T04:58:21.010Z,45.56
2023-02-19T05:00:51.207Z,45.46
2023-02-19T05:03:17.920Z,45.40
2023-02-19T05:05:44.714Z,45.47
2023-02-19T05:08:11.426Z,45.53
2023-02-19T05:10:38.141Z,45.79
2023-02-19T05:13:05.077Z,45.95
2023-02-19T05:15:31.902Z,46.18
2023-02-19T05:17:58.649Z,46.40
2023-02-19T05:20:25.453Z,46.52
2023-02-19T05:22:52.241Z,46.51
2023-02-19T05:25:19.012Z,46.49
2023-02-19T05:27:45.946Z,46.50
2023-02-19T05:30:13.209Z,46.42
2023-02-19T05:32:40.083Z,46.41
2023-02-19T05:35:07.245Z,46.24
2023-02-19T05:37:34.288Z,45.87
2023-02-19T05:40:01.006Z,45.87
2023-02-19T05:42:27.941Z,45.70
2023-02-19T05:44:54.667Z,45.86
2023-02-19T05:47:21.403Z,45.68
2023-02-19T05:49:48.234Z,45.66
2023-02-19T05:52:14.994Z,45.72
2023-02-19T05:54:41.933Z,45.59
2023-02-19T05:57:08.738Z,45.63
2023-02-19T05:59:35.528Z,45.67
2023-02-19T06:02:02.331Z,45.69
2023-02-19T06:04:29.294Z,45.72
2023-02-19T06:06:56.116Z,45.65
2023-02-19T06:09:22.851Z,45.60
2023-02-19T06:11:49.638Z,45.48
2023-02-19T06:14:16.387Z,45.52
2023-02-19T06:16:43.195Z,45.32
2023-02-19T06:19:10.209Z,45.18
2023-02-19T06:21:37.249Z,45.31
2023-02-19T06:24:10.227Z,45.22
2023-02-19T06:26:37.043Z,45.36
2023-02-19T06:29:03.871Z,45.38
2023-02-19T06:31:30.766Z,45.47
2023-02-19T06:33:57.600Z,45.43
2023-02-19T06:36:25.037Z,45.42
2023-02-19T06:38:51.902Z,45.32
2023-02-19T06:41:18.709Z,45.41
2023-02-19T06:43:46.646Z,45.24
2023-02-19T06:46:14.051Z,45.15
2023-02-19T06:48:41.686Z,45.24
2023-02-19T06:51:15.712Z,45.42
2023-02-19T06:53:42.885Z,45.51
2023-02-19T06:56:25.739Z,45.62
2023-02-19T06:58:54.224Z,45.57
2023-02-19T07:01:21.816Z,45.68
2023-02-19T07:03:48.636Z,45.79
2023-02-19T07:06:15.461Z,45.83
2023-02-19T07:08:42.161Z,45.93
2023-02-19T07:11:09.172Z,46.30
2023-02-19T07:13:36.510Z,46.34
2023-02-19T07:16:08.970Z,46.29
2023-02-19T07:18:35.802Z,46.58
2023-02-19T07:21:06.844Z,46.65
2023-02-19T07:23:33.604Z,46.40
2023-02-19T07:26:00.474Z,46.37
2023-02-19T07:28:27.347Z,46.17
2023-02-19T07:30:54.192Z,46.01
2023-02-19T07:33:20.913Z,45.79
2023-02-19T07:35:48.367Z,45.55
2023-02-19T07:38:18.771Z,45.46
2023-02-19T07:40:59.474Z,45.22
2023-02-19T07:43:27.277Z,45.17
2023-02-19T07:45:54.043Z,45.12
2023-02-19T07:48:20.986Z,45.07
2023-02-19T07:50:54.495Z,45.22
2023-02-19T07:53:21.510Z,45.18
2023-02-19T07:55:48.280Z,45.31
2023-02-19T07:58:14.992Z,45.12
2023-02-19T08:00:41.882Z,45.11
2023-02-19T08:03:09.231Z,44.98
2023-02-19T08:05:40.467Z,44.97
2023-02-19T08:08:08.518Z,44.99
2023-02-19T08:10:53.772Z,44.73
2023-02-19T08:13:22.693Z,44.83
2023-02-19T08:15:50.815Z,44.60
2023-02-19T08:18:18.578Z,44.73
2023-02-19T08:20:45.508Z,44.72
2023-02-19T08:23:12.568Z,44.94
2023-02-19T08:25:39.829Z,44.65
2023-02-19T08:28:06.996Z,44.81
2023-02-19T08:30:34.054Z,44.75
2023-02-19T08:33:02.273Z,44.84
2023-02-19T08:35:29.577Z,44.80
2023-02-19T08:37:57.488Z,44.62
2023-02-19T08:40:24.920Z,44.64
2023-02-19T08:42:51.871Z,44.49
2023-02-19T08:45:18.749Z,44.13
2023-02-19T08:47:45.729Z,43.91
2023-02-19T08:50:12.931Z,43.82
2023-02-19T08:52:39.766Z,43.50
2023-02-19T08:55:06.967Z,43.28
2023-02-19T08:57:37.838Z,43.31
2023-02-19T09:00:06.028Z,43.86
2023-02-19T09:02:33.038Z,43.41
2023-02-19T09:04:59.903Z,43.03
2023-02-19T09:07:26.860Z,42.51
2023-02-19T09:09:53.802Z,42.54
2023-02-19T09:12:20.804Z,42.48
2023-02-19T09:14:47.890Z,42.31
2023-02-19T09:17:14.694Z,42.42
2023-02-19T09:19:41.645Z,43.11
2023-02-19T09:22:08.416Z,43.21
2023-02-19T09:24:35.189Z,42.56
2023-02-19T09:27:02.059Z,42.27
2023-02-19T09:29:29.026Z,42.00
2023-02-19T09:31:57.288Z,41.76
2023-02-19T09:34:25.106Z,41.25
2023-02-19T09:36:52.144Z,40.46
2023-02-19T09:39:18.981Z,40.29
2023-02-19T09:41:57.330Z,40.17
2023-02-19T09:44:34.697Z,40.11
2023-02-19T09:47:02.054Z,39.98
2023-02-19T09:49:33.840Z,39.94
2023-02-19T09:52:13.044Z,39.66
2023-02-19T09:54:39.857Z,39.65
2023-02-19T09:57:06.696Z,39.01
2023-02-19T09:59:41.239Z,38.64
2023-02-19T10:02:30.489Z,38.74
2023-02-19T10:04:57.361Z,38.06
2023-02-19T10:07:25.826Z,38.00
2023-02-19T10:10:23.772Z,37.55
2023-02-19T10:12:52.647Z,37.84
2023-02-19T10:15:39.356Z,37.77
2023-02-19T10:18:08.833Z,37.99
2023-02-19T10:20:37.638Z,37.55
2023-02-19T10:23:06.161Z,37.79
2023-02-19T10:25:33.753Z,37.55
2023-02-19T10:28:01.041Z,37.63
2023-02-19T10:30:32.985Z,37.26
2023-02-19T10:33:21.153Z,37.26
2023-02-19T10:36:05.544Z,37.29
2023-02-19T10:38:45.999Z,36.68
2023-02-19T10:41:23.362Z,36.74
2023-02-19T10:43:54.871Z,37.07
2023-02-19T10:46:29.726Z,36.79
2023-02-19T10:48:58.734Z,36.48
2023-02-19T10:51:39.135Z,36.21
2023-02-19T10:54:24.466Z,35.24
2023-02-19T10:56:51.240Z,34.83
2023-02-19T10:59:30.201Z,35.01
2023-02-19T11:01:57.956Z,34.70
2023-02-19T11:04:26.237Z,34.72
2023-02-19T11:06:53.200Z,34.51
2023-02-19T11:09:38.931Z,34.75
2023-02-19T11:12:08.343Z,34.59
2023-02-19T11:14:35.272Z,34.70
2023-02-19T11:17:05.046Z,34.45
2023-02-19T11:19:36.918Z,34.39
2023-02-19T11:22:42.160Z,34.23
2023-02-19T11:25:14.963Z,34.37
2023-02-19T11:28:10.659Z,34.86
2023-02-19T11:30:38.745Z,34.58
2023-02-19T11:33:17.863Z,34.50
2023-02-19T11:35:44.729Z,34.89
2023-02-19T11:38:13.010Z,35.01
2023-02-19T11:40:41.377Z,35.23
2023-02-19T11:43:26.786Z,35.08
2023-02-19T11:46:24.959Z,35.48
2023-02-19T11:49:10.230Z,35.53
2023-02-19T11:52:01.777Z,35.52
2023-02-19T11:54:34.309Z,35.45
2023-02-19T11:57:10.418Z,35.50
2023-02-19T12:00:03.295Z,35.58
2023-02-19T12:03:04.072Z,35.71
2023-02-19T12:05:56.751Z,35.53
2023-02-19T12:08:38.430Z,35.62
2023-02-19T12:11:12.401Z,35.51
2023-02-19T12:14:09.225Z,35.67
2023-02-19T12:16:38.866Z,35.52
2023-02-19T12:19:18.817Z,34.90
2023-02-19T12:22:09.903Z,34.57
2023-02-19T12:25:11.568Z,32.80
2023-02-19T12:27:47.419Z,32.28
2023-02-19T12:30:23.206Z,32.12
2023-02-19T12:33:12.070Z,31.06
2023-02-19T12:35:48.164Z,31.39
2023-02-19T12:38:23.435Z,30.18
2023-02-19T12:41:17.994Z,29.13
2023-02-19T12:44:08.648Z,28.84
2023-02-19T12:46:37.833Z,28.65
2023-02-19T12:49:10.924Z,28.92
2023-02-19T12:51:55.349Z,27.89
2023-02-19T12:54:34.659Z,27.80
2023-02-19T12:57:02.583Z,27.59
2023-02-19T12:59:55.536Z,27.23
2023-02-19T13:02:44.351Z,27.30
2023-02-19T13:05:39.006Z,27.63
2023-02-19T13:08:21.548Z,26.90
2023-02-19T13:10:51.991Z,26.98
2023-02-19T13:13:42.479Z,26.72
2023-02-19T13:16:15.104Z,25.64
2023-02-19T13:18:52.501Z,26.60
2023-02-19T13:21:39.938Z,27.53
2023-02-19T13:24:09.519Z,27.86
2023-02-19T13:27:08.735Z,28.73
2023-02-19T13:29:35.411Z,29.63
2023-02-19T13:32:17.244Z,29.89
2023-02-19T13:35:29.940Z,30.20
2023-02-19T13:37:59.880Z,30.75
2023-02-19T13:40:37.627Z,30.61
2023-02-19T13:43:08.690Z,30.94
2023-02-19T13:45:39.382Z,30.96
2023-02-19T13:48:24.621Z,31.69
2023-02-19T13:51:11.908Z,31.86
2023-02-19T13:53:51.998Z,32.03
2023-02-19T13:56:34.345Z,32.38
2023-02-19T13:59:22.362Z,31.92
2023-02-19T14:01:52.058Z,31.95
2023-02-19T14:04:24.391Z,31.59
2023-02-19T14:07:03.332Z,31.72
2023-02-19T14:09:44.075Z,31.88
2023-02-19T14:12:10.795Z,31.89
2023-02-19T14:14:49.676Z,31.91
2023-02-19T14:17:38.313Z,32.20
2023-02-19T14:20:17.355Z,32.24
2023-02-19T14:23:01.721Z,32.58
2023-02-19T14:25:32.030Z,32.69
2023-02-19T14:28:11.734Z,32.73
2023-02-19T14:30:50.015Z,32.99
2023-02-19T14:33:18.178Z,32.98
2023-02-19T14:35:46.669Z,33.01
2023-02-19T14:38:26.366Z,33.13
2023-02-19T14:40:53.298Z,33.34
2023-02-19T14:43:21.079Z,33.41
2023-02-19T14:45:50.375Z,33.85
2023-02-19T14:48:22.680Z,33.58
2023-02-19T14:50:51.341Z,33.48
2023-02-19T14:53:18.109Z,33.80
2023-02-19T14:55:45.436Z,33.72
2023-02-19T14:58:44.681Z,33.96
2023-02-19T15:01:27.748Z,34.04
2023-02-19T15:03:55.382Z,34.05
2023-02-19T15:06:23.775Z,34.18
2023-02-19T15:08:56.494Z,34.02
2023-02-19T15:11:24.775Z,34.22
2023-02-19T15:14:15.227Z,34.06
2023-02-19T15:16:41.929Z,34.34
2023-02-19T15:19:09.487Z,34.36
2023-02-19T15:21:39.397Z,34.17
2023-02-19T15:24:06.397Z,34.31
2023-02-19T15:26:43.148Z,34.00
2023-02-19T15:29:14.105Z,34.29
2023-02-19T15:31:57.832Z,34.49
2023-02-19T15:34:26.158Z,34.39
2023-02-19T15:36:58.665Z,34.78
2023-02-19T15:39:34.303Z,34.66
2023-02-19T15:42:02.268Z,34.62
2023-02-19T15:44:43.385Z,34.74
2023-02-19T15:47:15.798Z,34.96
2023-02-19T15:50:08.837Z,34.98
2023-02-19T15:52:37.827Z,35.29
2023-02-19T15:55:04.481Z,35.10
2023-02-19T15:57:35.323Z,35.24
2023-02-19T16:00:46.831Z,35.35
2023-02-19T16:03:19.826Z,35.61
2023-02-19T16:05:47.099Z,35.50
2023-02-19T16:08:19.542Z,35.81
2023-02-19T16:10:54.490Z,35.81
2023-02-19T16:13:26.678Z,35.69
2023-02-19T16:16:10.856Z,35.79
2023-02-19T16:18:37.679Z,35.88
2023-02-19T16:21:07.732Z,35.98
2023-02-19T16:23:34.671Z,35.67
2023-02-19T16:26:02.180Z,35.69
2023-02-19T16:28:30.616Z,36.10
2023-02-19T16:31:04.606Z,35.93
2023-02-19T16:33:37.185Z,36.01
2023-02-19T16:36:36.021Z,36.07
2023-02-19T16:39:09.339Z,36.29
2023-02-19T16:41:48.720Z,36.94
2023-02-19T16:44:21.434Z,37.59
2023-02-19T16:46:49.837Z,37.87
2023-02-19T16:49:16.677Z,38.21
2023-02-19T16:51:44.595Z,38.73
2023-02-19T16:54:11.674Z,38.93
2023-02-19T16:56:38.603Z,39.46
2023-02-19T16:59:09.645Z,39.33
2023-02-19T17:01:36.585Z,39.55
2023-02-19T17:04:05.350Z,39.38
2023-02-19T17:06:32.976Z,39.62
2023-02-19T17:08:59.927Z,39.67
2023-02-19T17:11:26.767Z,39.45
2023-02-19T17:13:53.471Z,39.70
2023-02-19T17:16:25.175Z,39.86
2023-02-19T17:18:52.100Z,39.67
2023-02-19T17:21:23.154Z,39.88
2023-02-19T17:23:51.534Z,39.60
2023-02-19T17:26:20.298Z,39.69
2023-02-19T17:28:47.179Z,39.68
2023-02-19T17:31:14.812Z,40.14
2023-02-19T17:33:41.709Z,39.87
2023-02-19T17:36:08.827Z,40.02
2023-02-19T17:38:35.643Z,40.13
2023-02-19T17:41:02.459Z,39.82
2023-02-19T17:43:29.252Z,40.19
2023-02-19T17:45:56.178Z,40.09
2023-02-19T17:48:25.226Z,40.01
2023-02-19T17:50:52.391Z,39.92
2023-02-19T17:53:19.370Z,39.88
2023-02-19T17:55:46.289Z,40.09
2023-02-19T17:58:13.430Z,40.16
2023-02-19T18:00:40.234Z,40.15
2023-02-19T18:03:10.653Z,40.41
2023-02-19T18:05:37.464Z,40.18
2023-02-19T18:08:04.325Z,40.21
2023-02-19T18:10:31.221Z,40.44
2023-02-19T18:12:57.943Z,40.55
2023-02-19T18:15:27.124Z,40.53
2023-02-19T18:17:54.670Z,40.40
2023-02-19T18:20:28.465Z,40.69
2023-02-19T18:22:55.508Z,40.73
2023-02-19T18:25:22.966Z,40.98
2023-02-19T18:27:49.919Z,41.25
2023-02-19T18:30:19.008Z,41.00
2023-02-19T18:32:48.175Z,41.52
2023-02-19T18:35:15.870Z,41.94
2023-02-19T18:37:42.940Z,42.01
2023-02-19T18:40:10.517Z,42.04
2023-02-19T18:42:37.466Z,42.13
2023-02-19T18:45:04.556Z,42.01
2023-02-19T18:47:31.386Z,42.19
2023-02-19T18:49:58.638Z,42.34
2023-02-19T18:52:26.472Z,42.87
2023-02-19T18:54:56.124Z,42.99
2023-02-19T18:57:23.695Z,42.89
2023-02-19T18:59:50.677Z,43.06
2023-02-19T19:02:17.758Z,43.56
2023-02-19T19:04:51.250Z,44.08
2023-02-19T19:07:18.926Z,44.15
2023-02-19T19:09:45.698Z,43.91
2023-02-19T19:12:14.950Z,44.07
2023-02-19T19:14:41.729Z,44.25
2023-02-19T19:17:08.614Z,43.89
2023-02-19T19:19:35.453Z,43.64
2023-02-19T19:22:02.259Z,43.62
2023-02-19T19:24:29.010Z,43.66
2023-02-19T19:26:55.876Z,43.15
2023-02-19T19:29:23.156Z,43.10
2023-02-19T19:31:50.244Z,42.83
2023-02-19T19:34:17.363Z,42.38
2023-02-19T19:36:44.572Z,42.59
2023-02-19T19:39:11.435Z,42.25
2023-02-19T19:41:38.292Z,41.90
2023-02-19T19:44:05.631Z,42.15
2023-02-19T19:46:34.325Z,41.93
2023-02-19T19:49:01.371Z,41.59
2023-02-19T19:51:34.417Z,41.30
2023-02-19T19:54:03.193Z,41.26
2023-02-19T19:56:30.387Z,41.41
2023-02-19T19:58:57.319Z,41.37
2023-02-19T20:01:24.153Z,41.15
2023-02-19T20:03:53.785Z,40.88
2023-02-19T20:06:30.996Z,40.66
2023-02-19T20:08:58.086Z,40.60
2023-02-19T20:11:24.839Z,40.58
2023-02-19T20:13:51.801Z,40.87
2023-02-19T20:16:24.436Z,40.66
2023-02-19T20:18:51.159Z,40.48
2023-02-19T20:21:18.011Z,40.56
2023-02-19T20:23:45.069Z,40.75
2023-02-19T20:26:11.877Z,40.58
2023-02-19T20:28:38.732Z,40.70
2023-02-19T20:31:05.494Z,40.67
2023-02-19T20:33:32.269Z,40.56
2023-02-19T20:35:59.515Z,40.97
2023-02-19T20:38:26.324Z,40.59
2023-02-19T20:40:53.164Z,41.04
2023-02-19T20:43:19.993Z,41.12
2023-02-19T20:45:47.907Z,41.27
2023-02-19T20:48:18.129Z,41.31
2023-02-19T20:50:45.030Z,41.40
2023-02-19T20:53:11.811Z,41.56
2023-02-19T20:55:38.843Z,41.75
2023-02-19T20:58:05.688Z,41.63
2023-02-19T21:00:32.443Z,41.74
2023-02-19T21:02:59.279Z,41.52
2023-02-19T21:05:26.286Z,41.63
2023-02-19T21:07:53.082Z,42.02
2023-02-19T21:10:19.848Z,41.78
2023-02-19T21:12:46.809Z,41.96
2023-02-19T21:15:14.837Z,42.24
2023-02-19T21:17:44.869Z,42.19
2023-02-19T21:20:11.975Z,42.54
2023-02-19T21:22:38.802Z,42.54
2023-02-19T21:25:05.930Z,42.34
2023-02-19T21:27:32.847Z,42.74
2023-02-19T21:29:59.575Z,42.98
2023-02-19T21:32:26.469Z,43.10
2023-02-19T21:34:53.507Z,42.67
2023-02-19T21:37:20.318Z,43.06
2023-02-19T21:39:47.213Z,43.16
2023-02-19T21:42:14.108Z,43.14
2023-02-19T21:44:42.985Z,42.78
2023-02-19T21:47:11.199Z,42.94
2023-02-19T21:49:38.247Z,42.78
2023-02-19T21:52:05.095Z,42.59
2023-02-19T21:54:32.245Z,42.93
2023-02-19T21:57:01.938Z,42.81
2023-02-19T21:59:28.587Z,42.58
2023-02-19T22:01:57.130Z,42.41
2023-02-19T22:04:27.844Z,42.64
2023-02-19T22:06:55.427Z,42.71
2023-02-19T22:09:22.173Z,42.85
2023-02-19T22:11:49.042Z,42.42
2023-02-19T22:14:15.915Z,42.70
2023-02-19T22:16:42.719Z,42.52
2023-02-19T22:19:09.822Z,42.38
2023-02-19T22:21:36.610Z,42.74
2023-02-19T22:24:03.981Z,42.50
2023-02-19T22:26:36.028Z,42.35
2023-02-19T22:29:07.351Z,42.61
2023-02-19T22:31:34.476Z,42.84
2023-02-19T22:34:01.416Z,42.95
2023-02-19T22:36:31.107Z,42.91
2023-02-19T22:38:57.887Z,43.02
2023-02-19T22:41:24.854Z,43.20
2023-02-19T22:43:54.415Z,42.70
2023-02-19T22:46:24.817Z,43.20
2023-02-19T22:48:51.638Z,42.59
2023-02-19T22:51:20.229Z,42.91
2023-02-19T22:53:51.342Z,43.02
2023-02-19T22:56:19.371Z,43.45
2023-02-19T22:58:46.194Z,43.25
2023-02-19T23:01:13.320Z,43.63
2023-02-19T23:03:53.001Z,43.83
2023-02-19T23:06:26.688Z,43.89
2023-02-19T23:08:54.412Z,43.82
2023-02-19T23:11:29.006Z,44.67
2023-02-19T23:13:55.911Z,44.63
2023-02-19T23:16:22.707Z,44.58
2023-02-19T23:18:49.845Z,44.73
2023-02-19T23:21:16.697Z,44.98
2023-02-19T23:23:43.783Z,44.96
2023-02-19T23:26:10.821Z,45.07
2023-02-19T23:28:39.577Z,45.45
2023-02-19T23:31:06.775Z,45.83
2023-02-19T23:33:33.937Z,45.20
2023-02-19T23:36:00.780Z,45.04
2023-02-19T23:38:27.695Z,45.17
2023-02-19T23:40:54.482Z,45.40
2023-02-19T23:43:21.977Z,45.25
2023-02-19T23:45:49.869Z,45.22
2023-02-19T23:48:16.963Z,45.28
2023-02-19T23:50:43.800Z,45.21
2023-02-19T23:53:10.561Z,45.17
2023-02-19T23:55:37.380Z,45.24
2023-02-19T23:58:04.103Z,44.98
